This is the latest recevied weather packets stored in our database for station/object DK6GC-10. If no packets are shown the sender has not sent any weather packets the latest 10 day(s).
| Time | Temp. | Humidity | Pressure | Rain* | Wind** | Luminosity | Snow |
|---|---|---|---|---|---|---|---|
| 1777518019 | 7.22° C | 49% | 1024.9 hPa | - | - | - | - |
| 1777517119 | 7.78° C | 49% | 1024.6 hPa | - | - | - | - |
| 1777516219 | 7.78° C | 49% | 1024.5 hPa | - | - | - | - |
| 1777515319 | 9.44° C | 45% | 1024.5 hPa | - | - | - | - |
| 1777514418 | 10.56° C | 39% | 1024.2 hPa | - | - | - | - |
| 1777513518 | 9.44° C | 42% | 1024.2 hPa | - | - | - | - |
| 1777512618 | 9.44° C | 43% | 1024.3 hPa | - | - | - | - |
| 1777511717 | 9.44° C | 42% | 1024.2 hPa | - | - | - | - |
| 1777510817 | 10° C | 44% | 1024.2 hPa | - | - | - | - |
| 1777509916 | 10.56° C | 43% | 1024 hPa | - | - | - | - |
| 1777509016 | 11.11° C | 39% | 1023.9 hPa | - | - | - | - |
| 1777508116 | 10.56° C | 41% | 1023.8 hPa | - | - | - | - |
| 1777507221 | 10.56° C | 44% | 1023.8 hPa | - | - | - | - |
| 1777506321 | 11.11° C | 41% | 1023.7 hPa | - | - | - | - |
| 1777505420 | 11.67° C | 41% | 1023.8 hPa | - | - | - | - |
| 1777504520 | 11.67° C | 39% | 1023.8 hPa | - | - | - | - |
| 1777503620 | 11.11° C | 42% | 1023.7 hPa | - | - | - | - |
| 1777502720 | 11.11° C | 41% | 1023.5 hPa | - | - | - | - |
| 1777501820 | 11.11° C | 43% | 1023.5 hPa | - | - | - | - |
| 1777500920 | 11.67° C | 41% | 1023.6 hPa | - | - | - | - |
| 1777500019 | 12.78° C | 38% | 1023.5 hPa | - | - | - | - |
| 1777499119 | 13.89° C | 33% | 1023.2 hPa | - | - | - | - |
| 1777498219 | 13.33° C | 33% | 1023.2 hPa | - | - | - | - |
| 1777497319 | 13.33° C | 34% | 1023.2 hPa | - | - | - | - |
| 1777496419 | 13.89° C | 37% | 1023.1 hPa | - | - | - | - |
* Rain since midnight (hover to see other rain measurements)
** Current wind speed in m/s (hover to see current wind gust speed)